createdAt,value
2018-09-30T00:00:27.448Z,1015.50
2018-09-30T00:01:28.821Z,1015.46
2018-09-30T00:02:30.208Z,1015.42
2018-09-30T00:03:31.577Z,1015.44
2018-09-30T00:04:32.954Z,1015.46
2018-09-30T00:05:34.327Z,1015.44
2018-09-30T00:06:35.717Z,1015.43
2018-09-30T00:07:37.099Z,1015.42
2018-09-30T00:08:38.478Z,1015.40
2018-09-30T00:09:39.843Z,1015.41
2018-09-30T00:10:41.221Z,1015.35
2018-09-30T00:11:42.599Z,1015.38
2018-09-30T00:12:43.981Z,1015.36
2018-09-30T00:13:45.353Z,1015.38
2018-09-30T00:14:46.731Z,1015.41
2018-09-30T00:15:48.130Z,1015.39
2018-09-30T00:16:49.500Z,1015.38
2018-09-30T00:17:50.893Z,1015.33
2018-09-30T00:18:52.269Z,1015.33
2018-09-30T00:19:53.654Z,1015.30
2018-09-30T00:20:55.036Z,1015.29
2018-09-30T00:21:56.412Z,1015.30
2018-09-30T00:22:57.796Z,1015.27
2018-09-30T00:23:59.175Z,1015.30
2018-09-30T00:25:00.558Z,1015.33
2018-09-30T00:26:01.933Z,1015.27
2018-09-30T00:27:03.300Z,1015.29
2018-09-30T00:28:04.692Z,1015.35
2018-09-30T00:29:06.087Z,1015.31
2018-09-30T00:30:07.469Z,1015.27
2018-09-30T00:31:08.931Z,1015.30
2018-09-30T00:32:10.247Z,1015.28
2018-09-30T00:33:11.637Z,1015.26
2018-09-30T00:34:13.013Z,1015.25
2018-09-30T00:35:14.403Z,1015.26
2018-09-30T00:36:15.836Z,1015.23
2018-09-30T00:37:17.150Z,1015.23
2018-09-30T00:38:18.513Z,1015.21
2018-09-30T00:39:19.924Z,1015.19
2018-09-30T00:40:21.311Z,1015.19
2018-09-30T00:41:22.713Z,1015.15
2018-09-30T00:42:24.090Z,1015.11
2018-09-30T00:43:25.465Z,1015.14
2018-09-30T00:44:26.852Z,1015.10
2018-09-30T00:45:28.237Z,1015.08
2018-09-30T00:46:29.607Z,1015.04
2018-09-30T00:47:30.987Z,1015.04
2018-09-30T00:48:32.356Z,1015.02
2018-09-30T00:49:33.749Z,1015.00
2018-09-30T00:50:35.120Z,1015.02
2018-09-30T00:51:36.511Z,1014.96
2018-09-30T00:52:37.884Z,1015.02
2018-09-30T00:53:39.268Z,1015.01
2018-09-30T00:54:40.650Z,1014.97
2018-09-30T00:55:42.024Z,1014.98
2018-09-30T00:56:43.396Z,1015.00
2018-09-30T00:57:44.776Z,1014.96
2018-09-30T00:58:46.152Z,1014.96
2018-09-30T00:59:47.532Z,1015.01
2018-09-30T01:00:48.906Z,1015.01
2018-09-30T01:01:50.296Z,1014.96
2018-09-30T01:02:51.674Z,1014.98
2018-09-30T01:03:53.045Z,1014.99
2018-09-30T01:04:54.427Z,1015.00
2018-09-30T01:05:55.797Z,1014.94
2018-09-30T01:06:57.181Z,1014.92
2018-09-30T01:07:58.558Z,1014.90
2018-09-30T01:08:59.963Z,1014.83
2018-09-30T01:10:01.318Z,1014.91
2018-09-30T01:11:02.697Z,1014.85
2018-09-30T01:12:04.081Z,1014.87
2018-09-30T01:13:05.459Z,1014.86
2018-09-30T01:14:06.827Z,1014.87
2018-09-30T01:15:08.210Z,1014.84
2018-09-30T01:16:09.589Z,1014.92
2018-09-30T01:17:10.968Z,1014.86
2018-09-30T01:18:12.351Z,1014.84
2018-09-30T01:19:13.726Z,1014.83
2018-09-30T01:20:15.108Z,1014.84
2018-09-30T01:21:16.485Z,1014.84
2018-09-30T01:22:17.884Z,1014.77
2018-09-30T01:23:19.250Z,1014.77
2018-09-30T01:24:20.626Z,1014.79
2018-09-30T01:25:22.002Z,1014.79
2018-09-30T01:26:23.379Z,1014.76
2018-09-30T01:27:24.766Z,1014.75
2018-09-30T01:28:26.140Z,1014.68
2018-09-30T01:29:27.516Z,1014.68
2018-09-30T01:30:28.904Z,1014.68
2018-09-30T01:31:30.277Z,1014.70
2018-09-30T01:32:31.660Z,1014.70
2018-09-30T01:33:33.027Z,1014.69
2018-09-30T01:34:34.415Z,1014.66
2018-09-30T01:35:35.795Z,1014.69
2018-09-30T01:36:37.168Z,1014.68
2018-09-30T01:37:38.549Z,1014.68
2018-09-30T01:38:39.923Z,1014.66
2018-09-30T01:39:41.300Z,1014.65
2018-09-30T01:40:42.669Z,1014.62
2018-09-30T01:41:44.045Z,1014.64
2018-09-30T01:42:45.426Z,1014.61
2018-09-30T01:43:46.799Z,1014.61
2018-09-30T01:44:48.186Z,1014.61
2018-09-30T01:45:49.560Z,1014.63
2018-09-30T01:46:50.940Z,1014.57
2018-09-30T01:47:52.318Z,1014.56
2018-09-30T01:48:53.698Z,1014.50
2018-09-30T01:49:55.072Z,1014.45
2018-09-30T01:50:56.452Z,1014.49
2018-09-30T01:51:57.836Z,1014.50
2018-09-30T01:52:59.212Z,1014.48
2018-09-30T01:54:00.612Z,1014.46
2018-09-30T01:55:01.964Z,1014.42
2018-09-30T01:56:03.331Z,1014.49
2018-09-30T01:57:04.717Z,1014.44
2018-09-30T01:58:06.089Z,1014.45
2018-09-30T01:59:07.465Z,1014.42
2018-09-30T02:00:08.847Z,1014.42
2018-09-30T02:01:10.215Z,1014.42
2018-09-30T02:02:11.605Z,1014.44
2018-09-30T02:03:12.989Z,1014.42
2018-09-30T02:04:14.359Z,1014.42
2018-09-30T02:05:15.734Z,1014.40
2018-09-30T02:06:17.116Z,1014.41
2018-09-30T02:07:18.498Z,1014.39
2018-09-30T02:08:19.879Z,1014.39
2018-09-30T02:09:21.257Z,1014.37
2018-09-30T02:10:22.632Z,1014.31
2018-09-30T02:11:24.012Z,1014.34
2018-09-30T02:12:25.379Z,1014.29
2018-09-30T02:13:26.765Z,1014.25
2018-09-30T02:14:28.144Z,1014.24
2018-09-30T02:15:29.521Z,1014.24
2018-09-30T02:16:30.904Z,1014.23
2018-09-30T02:17:32.276Z,1014.18
2018-09-30T02:18:33.654Z,1014.19
2018-09-30T02:19:35.027Z,1014.16
2018-09-30T02:20:36.414Z,1014.18
2018-09-30T02:21:37.799Z,1014.14
2018-09-30T02:22:39.182Z,1014.20
2018-09-30T02:23:40.553Z,1014.13
2018-09-30T02:24:41.922Z,1014.18
2018-09-30T02:25:43.311Z,1014.15
2018-09-30T02:26:44.683Z,1014.17
2018-09-30T02:27:46.067Z,1014.15
2018-09-30T02:28:47.439Z,1014.17
2018-09-30T02:29:49.394Z,1014.13
2018-09-30T02:30:50.769Z,1014.09
2018-09-30T02:31:52.159Z,1014.11
2018-09-30T02:32:53.533Z,1014.11
2018-09-30T02:33:54.910Z,1014.07
2018-09-30T02:34:56.286Z,1014.09
2018-09-30T02:35:57.659Z,1014.07
2018-09-30T02:36:59.051Z,1014.08
2018-09-30T02:38:00.426Z,1014.05
2018-09-30T02:39:01.796Z,1014.03
2018-09-30T02:40:03.932Z,1014.01
2018-09-30T02:41:05.314Z,1014.02
2018-09-30T02:42:06.680Z,1014.01
2018-09-30T02:43:08.050Z,1013.99
2018-09-30T02:44:09.431Z,1013.95
2018-09-30T02:45:10.810Z,1013.93
2018-09-30T02:46:12.185Z,1013.92
2018-09-30T02:47:13.558Z,1013.90
2018-09-30T02:48:14.943Z,1013.91
2018-09-30T02:49:16.313Z,1013.92
2018-09-30T02:50:17.685Z,1013.89
2018-09-30T02:51:19.075Z,1013.84
2018-09-30T02:52:20.454Z,1013.85
2018-09-30T02:53:21.835Z,1013.85
2018-09-30T02:54:23.209Z,1013.81
2018-09-30T02:55:24.589Z,1013.78
2018-09-30T02:56:25.975Z,1013.80
2018-09-30T02:57:27.361Z,1013.73
2018-09-30T02:58:28.735Z,1013.73
2018-09-30T02:59:30.118Z,1013.71
2018-09-30T03:00:31.487Z,1013.74
2018-09-30T03:01:32.869Z,1013.70
2018-09-30T03:02:34.246Z,1013.72
2018-09-30T03:03:35.627Z,1013.70
2018-09-30T03:04:37.008Z,1013.71
2018-09-30T03:05:38.388Z,1013.67
2018-09-30T03:06:39.767Z,1013.72
2018-09-30T03:07:41.145Z,1013.65
2018-09-30T03:08:42.520Z,1013.71
2018-09-30T03:09:43.910Z,1013.64
2018-09-30T03:10:45.292Z,1013.65
2018-09-30T03:11:46.665Z,1013.60
2018-09-30T03:12:48.044Z,1013.61
2018-09-30T03:13:49.418Z,1013.60
2018-09-30T03:14:50.796Z,1013.60
2018-09-30T03:15:52.174Z,1013.56
2018-09-30T03:16:53.554Z,1013.60
2018-09-30T03:17:54.932Z,1013.51
2018-09-30T03:18:56.304Z,1013.51
2018-09-30T03:19:57.672Z,1013.52
2018-09-30T03:20:59.050Z,1013.51
2018-09-30T03:22:00.424Z,1013.52
2018-09-30T03:23:01.806Z,1013.51
2018-09-30T03:24:03.189Z,1013.53
2018-09-30T03:25:04.566Z,1013.52
2018-09-30T03:26:05.937Z,1013.49
2018-09-30T03:27:07.313Z,1013.48
2018-09-30T03:28:08.697Z,1013.49
2018-09-30T03:29:10.064Z,1013.45
2018-09-30T03:30:11.435Z,1013.43
2018-09-30T03:31:12.819Z,1013.42
2018-09-30T03:32:14.217Z,1013.40
2018-09-30T03:33:15.573Z,1013.41
2018-09-30T03:34:16.947Z,1013.42
2018-09-30T03:35:18.325Z,1013.36
2018-09-30T03:36:19.700Z,1013.33
2018-09-30T03:37:21.084Z,1013.35
2018-09-30T03:38:22.453Z,1013.34
2018-09-30T03:39:23.846Z,1013.33
2018-09-30T03:40:25.201Z,1013.30
2018-09-30T03:41:26.594Z,1013.32
2018-09-30T03:42:27.968Z,1013.31
2018-09-30T03:43:29.346Z,1013.27
2018-09-30T03:44:30.721Z,1013.25
2018-09-30T03:45:32.100Z,1013.19
2018-09-30T03:46:33.472Z,1013.23
2018-09-30T03:47:34.856Z,1013.20
2018-09-30T03:48:36.236Z,1013.19
2018-09-30T03:49:37.600Z,1013.19
2018-09-30T03:50:38.975Z,1013.14
2018-09-30T03:51:40.357Z,1013.15
2018-09-30T03:52:41.734Z,1013.16
2018-09-30T03:53:43.120Z,1013.14
2018-09-30T03:54:44.496Z,1013.17
2018-09-30T03:55:45.869Z,1013.12
2018-09-30T03:56:47.264Z,1013.12
2018-09-30T03:57:48.610Z,1013.13
2018-09-30T03:58:49.991Z,1013.12
2018-09-30T03:59:51.367Z,1013.11
2018-09-30T04:00:52.743Z,1013.15
2018-09-30T04:01:54.124Z,1013.10
2018-09-30T04:02:55.499Z,1013.13
2018-09-30T04:03:56.882Z,1013.16
2018-09-30T04:04:58.259Z,1013.09
2018-09-30T04:05:59.644Z,1013.09
2018-09-30T04:07:01.007Z,1013.12
2018-09-30T04:08:02.386Z,1013.13
2018-09-30T04:09:03.766Z,1013.14
2018-09-30T04:10:05.272Z,1013.10
2018-09-30T04:11:06.518Z,1013.19
2018-09-30T04:12:07.890Z,1013.18
2018-09-30T04:13:09.252Z,1013.17
2018-09-30T04:14:10.628Z,1013.15
2018-09-30T04:15:12.006Z,1013.15
2018-09-30T04:16:13.378Z,1013.15
2018-09-30T04:17:14.781Z,1013.11
2018-09-30T04:18:16.134Z,1013.13
2018-09-30T04:19:17.507Z,1013.08
2018-09-30T04:20:18.886Z,1013.06
2018-09-30T04:21:20.252Z,1013.07
2018-09-30T04:22:21.638Z,1013.09
2018-09-30T04:23:23.007Z,1013.11
2018-09-30T04:24:24.383Z,1013.01
2018-09-30T04:25:25.765Z,1013.05
2018-09-30T04:26:27.131Z,1012.98
2018-09-30T04:27:28.513Z,1012.98
2018-09-30T04:28:29.893Z,1013.01
2018-09-30T04:29:31.261Z,1012.98
2018-09-30T04:30:32.631Z,1012.97
2018-09-30T04:31:34.013Z,1012.95
2018-09-30T04:32:35.391Z,1012.96
2018-09-30T04:33:37.647Z,1012.96
2018-09-30T04:34:39.036Z,1012.96
2018-09-30T04:35:40.404Z,1012.95
2018-09-30T04:36:41.794Z,1012.96
2018-09-30T04:37:43.180Z,1012.92
2018-09-30T04:38:44.562Z,1012.93
2018-09-30T04:39:45.950Z,1012.96
2018-09-30T04:40:47.341Z,1012.98
2018-09-30T04:41:48.712Z,1012.94
2018-09-30T04:42:50.087Z,1012.92
2018-09-30T04:43:51.454Z,1012.93
2018-09-30T04:44:52.840Z,1012.91
2018-09-30T04:45:54.226Z,1012.87
2018-09-30T04:46:55.595Z,1012.88
2018-09-30T04:47:56.974Z,1012.86
2018-09-30T04:48:58.352Z,1012.82
2018-09-30T04:49:59.773Z,1012.86
2018-09-30T04:51:01.111Z,1012.81
2018-09-30T04:52:02.490Z,1012.84
2018-09-30T04:53:03.872Z,1012.83
2018-09-30T04:54:05.251Z,1012.76
2018-09-30T04:55:06.628Z,1012.70
2018-09-30T04:56:08.011Z,1012.68
2018-09-30T04:57:09.379Z,1012.67
2018-09-30T04:58:10.752Z,1012.63
2018-09-30T04:59:12.140Z,1012.62
2018-09-30T05:00:13.527Z,1012.60
2018-09-30T05:01:14.899Z,1012.59
2018-09-30T05:02:16.299Z,1012.59
2018-09-30T05:03:17.681Z,1012.59
2018-09-30T05:04:19.064Z,1012.58
2018-09-30T05:05:20.434Z,1012.61
2018-09-30T05:06:21.817Z,1012.58
2018-09-30T05:07:23.200Z,1012.60
2018-09-30T05:08:24.573Z,1012.57
2018-09-30T05:09:25.946Z,1012.56
2018-09-30T05:10:27.326Z,1012.57
2018-09-30T05:11:28.712Z,1012.52
2018-09-30T05:12:30.092Z,1012.52
2018-09-30T05:13:31.456Z,1012.55
2018-09-30T05:14:32.849Z,1012.50
2018-09-30T05:15:34.231Z,1012.55
2018-09-30T05:16:35.605Z,1012.54
2018-09-30T05:17:37.000Z,1012.51
2018-09-30T05:18:38.381Z,1012.54
2018-09-30T05:19:39.753Z,1012.51
2018-09-30T05:20:41.133Z,1012.50
2018-09-30T05:21:42.512Z,1012.51
2018-09-30T05:22:44.438Z,1012.54
2018-09-30T05:23:45.812Z,1012.54
2018-09-30T05:24:47.208Z,1012.52
2018-09-30T05:25:48.682Z,1012.53
2018-09-30T05:26:49.925Z,1012.52
2018-09-30T05:27:51.294Z,1012.54
2018-09-30T05:28:52.675Z,1012.52
2018-09-30T05:29:54.057Z,1012.51
2018-09-30T05:30:55.436Z,1012.53
2018-09-30T05:31:56.812Z,1012.56
2018-09-30T05:32:58.198Z,1012.55
2018-09-30T05:33:59.577Z,1012.53
2018-09-30T05:35:00.957Z,1012.50
2018-09-30T05:36:02.346Z,1012.47
2018-09-30T05:37:03.725Z,1012.51
2018-09-30T05:38:05.110Z,1012.52
2018-09-30T05:39:06.486Z,1012.49
2018-09-30T05:40:07.867Z,1012.48
2018-09-30T05:41:09.249Z,1012.49
2018-09-30T05:42:10.621Z,1012.48
2018-09-30T05:43:12.023Z,1012.43
2018-09-30T05:44:13.412Z,1012.49
2018-09-30T05:45:14.791Z,1012.45
2018-09-30T05:46:16.173Z,1012.46
2018-09-30T05:47:17.554Z,1012.39
2018-09-30T05:48:18.943Z,1012.42
2018-09-30T05:49:20.313Z,1012.40
2018-09-30T05:50:21.695Z,1012.42
2018-09-30T05:51:23.077Z,1012.44
2018-09-30T05:52:24.464Z,1012.43
2018-09-30T05:53:25.839Z,1012.43
2018-09-30T05:54:27.210Z,1012.45
2018-09-30T05:55:28.597Z,1012.44
2018-09-30T05:56:29.984Z,1012.42
2018-09-30T05:57:31.434Z,1012.47
2018-09-30T05:58:32.742Z,1012.48
2018-09-30T05:59:34.128Z,1012.47
2018-09-30T06:00:35.508Z,1012.47
2018-09-30T06:01:36.883Z,1012.49
2018-09-30T06:02:38.263Z,1012.48
2018-09-30T06:03:39.662Z,1012.51
2018-09-30T06:04:41.044Z,1012.49
2018-09-30T06:05:42.432Z,1012.48
2018-09-30T06:06:43.812Z,1012.47
2018-09-30T06:07:45.199Z,1012.50
2018-09-30T06:08:46.580Z,1012.51
2018-09-30T06:09:47.958Z,1012.52
2018-09-30T06:10:49.339Z,1012.52
2018-09-30T06:11:50.715Z,1012.52
2018-09-30T06:12:52.100Z,1012.52
2018-09-30T06:13:53.573Z,1012.55
2018-09-30T06:14:54.827Z,1012.55
2018-09-30T06:15:56.272Z,1012.56
2018-09-30T06:16:57.604Z,1012.56
2018-09-30T06:17:58.984Z,1012.53
2018-09-30T06:19:00.364Z,1012.52
2018-09-30T06:20:01.747Z,1012.52
2018-09-30T06:21:03.127Z,1012.55
2018-09-30T06:22:04.509Z,1012.53
2018-09-30T06:23:05.894Z,1012.54
2018-09-30T06:24:07.333Z,1012.51
2018-09-30T06:25:08.677Z,1012.50
2018-09-30T06:26:10.060Z,1012.55
2018-09-30T06:27:11.444Z,1012.54
2018-09-30T06:28:12.829Z,1012.45
2018-09-30T06:29:14.214Z,1012.47
2018-09-30T06:30:15.596Z,1012.44
2018-09-30T06:31:16.984Z,1012.45
2018-09-30T06:32:18.367Z,1012.50
2018-09-30T06:33:19.746Z,1012.46
2018-09-30T06:34:21.135Z,1012.48
2018-09-30T06:35:22.523Z,1012.44
2018-09-30T06:36:23.910Z,1012.44
2018-09-30T06:37:25.297Z,1012.44
2018-09-30T06:38:26.680Z,1012.43
2018-09-30T06:39:28.065Z,1012.44
2018-09-30T06:40:29.501Z,1012.41
2018-09-30T06:41:30.830Z,1012.43
2018-09-30T06:42:32.202Z,1012.43
2018-09-30T06:43:33.595Z,1012.40
2018-09-30T06:44:34.969Z,1012.40
2018-09-30T06:45:36.365Z,1012.39
2018-09-30T06:46:37.738Z,1012.40
2018-09-30T06:47:39.133Z,1012.42
2018-09-30T06:48:40.511Z,1012.41
2018-09-30T06:49:41.885Z,1012.40
2018-09-30T06:50:43.338Z,1012.43
2018-09-30T06:51:44.655Z,1012.41
2018-09-30T06:52:46.029Z,1012.40
2018-09-30T06:53:47.419Z,1012.39
2018-09-30T06:54:48.801Z,1012.33
2018-09-30T06:55:50.239Z,1012.30
2018-09-30T06:56:51.623Z,1012.37
2018-09-30T06:57:53.010Z,1012.33
2018-09-30T06:58:54.390Z,1012.37
2018-09-30T06:59:55.781Z,1012.39
2018-09-30T07:00:57.172Z,1012.35
2018-09-30T07:01:58.551Z,1012.35
2018-09-30T07:02:59.941Z,1012.32
2018-09-30T07:04:01.322Z,1012.36
2018-09-30T07:05:02.702Z,1012.37
2018-09-30T07:06:04.089Z,1012.33
2018-09-30T07:07:05.504Z,1012.36
2018-09-30T07:08:06.883Z,1012.32
2018-09-30T07:09:08.275Z,1012.33
2018-09-30T07:10:09.672Z,1012.33
2018-09-30T07:11:11.109Z,1012.34
2018-09-30T07:12:12.499Z,1012.38
2018-09-30T07:13:13.879Z,1012.34
2018-09-30T07:14:15.263Z,1012.29
2018-09-30T07:15:16.651Z,1012.33
2018-09-30T07:16:18.038Z,1012.31
2018-09-30T07:17:19.418Z,1012.32
2018-09-30T07:18:20.816Z,1012.32
2018-09-30T07:19:22.195Z,1012.32
2018-09-30T07:20:23.620Z,1012.35
2018-09-30T07:21:25.000Z,1012.34
2018-09-30T07:22:26.438Z,1012.35
2018-09-30T07:23:27.782Z,1012.35
2018-09-30T07:24:29.167Z,1012.36
2018-09-30T07:25:30.556Z,1012.34
2018-09-30T07:26:31.940Z,1012.33
2018-09-30T07:27:33.322Z,1012.35
2018-09-30T07:28:34.717Z,1012.40
2018-09-30T07:29:36.106Z,1012.33
2018-09-30T07:30:37.501Z,1012.33
2018-09-30T07:31:38.896Z,1012.35
2018-09-30T07:32:40.292Z,1012.28
2018-09-30T07:33:41.683Z,1012.30
2018-09-30T07:34:43.063Z,1012.30
2018-09-30T07:35:44.476Z,1012.26
2018-09-30T07:36:45.852Z,1012.23
2018-09-30T07:37:47.232Z,1012.19
2018-09-30T07:38:48.627Z,1012.15
2018-09-30T07:39:50.009Z,1012.18
2018-09-30T07:40:51.401Z,1012.20
2018-09-30T07:41:52.738Z,1012.19
2018-09-30T07:42:54.153Z,1012.19
2018-09-30T07:43:55.546Z,1012.18
2018-09-30T07:44:56.945Z,1012.19
2018-09-30T07:45:58.330Z,1012.17
2018-09-30T07:46:59.714Z,1012.24
2018-09-30T07:48:01.099Z,1012.21
2018-09-30T07:49:02.489Z,1012.20
2018-09-30T07:50:03.897Z,1012.17
2018-09-30T07:51:05.284Z,1012.18
2018-09-30T07:52:06.716Z,1012.19
2018-09-30T07:53:08.095Z,1012.16
2018-09-30T07:54:09.494Z,1012.19
2018-09-30T07:55:10.882Z,1012.15
2018-09-30T07:56:12.268Z,1012.14
2018-09-30T07:57:13.660Z,1012.09
2018-09-30T07:58:15.047Z,1012.10
2018-09-30T07:59:16.456Z,1011.95
2018-09-30T08:00:17.851Z,1011.96
2018-09-30T08:01:19.246Z,1011.93
2018-09-30T08:02:20.644Z,1011.92
2018-09-30T08:03:22.946Z,1011.98
2018-09-30T08:04:24.341Z,1012.02
2018-09-30T08:05:25.743Z,1012.05
2018-09-30T08:06:27.168Z,1012.06
2018-09-30T08:07:28.493Z,1012.02
2018-09-30T08:08:29.892Z,1012.03
2018-09-30T08:09:31.281Z,1011.94
2018-09-30T08:10:32.685Z,1011.88
2018-09-30T08:11:34.087Z,1011.96
2018-09-30T08:12:35.479Z,1011.90
2018-09-30T08:13:36.876Z,1011.88
2018-09-30T08:14:38.272Z,1011.91
2018-09-30T08:15:39.653Z,1011.89
2018-09-30T08:16:41.056Z,1011.92
2018-09-30T08:17:42.434Z,1011.97
2018-09-30T08:18:43.833Z,1011.96
2018-09-30T08:19:45.226Z,1011.95
2018-09-30T08:20:46.617Z,1011.95
2018-09-30T08:21:48.010Z,1011.93
2018-09-30T08:22:49.406Z,1011.88
2018-09-30T08:23:50.807Z,1011.88
2018-09-30T08:24:52.200Z,1011.82
2018-09-30T08:25:53.588Z,1011.82
2018-09-30T08:26:54.982Z,1011.85
2018-09-30T08:27:56.373Z,1011.88
2018-09-30T08:28:57.773Z,1011.87
2018-09-30T08:29:59.160Z,1011.85
2018-09-30T08:31:00.567Z,1011.82
2018-09-30T08:32:01.945Z,1011.79
2018-09-30T08:33:03.360Z,1011.81
2018-09-30T08:34:04.752Z,1011.78
2018-09-30T08:35:06.149Z,1011.79
2018-09-30T08:36:07.557Z,1011.72
2018-09-30T08:37:08.946Z,1011.72
2018-09-30T08:38:10.336Z,1011.71
2018-09-30T08:39:11.733Z,1011.68
2018-09-30T08:40:13.137Z,1011.68
2018-09-30T08:41:14.541Z,1011.63
2018-09-30T08:42:15.941Z,1011.63
2018-09-30T08:43:17.289Z,1011.71
2018-09-30T08:44:18.703Z,1011.62
2018-09-30T08:45:20.036Z,1011.60
2018-09-30T08:46:21.447Z,1011.63
2018-09-30T08:47:22.896Z,1011.55
2018-09-30T08:48:24.250Z,1011.61
2018-09-30T08:49:25.704Z,1011.46
2018-09-30T08:50:27.050Z,1011.47
2018-09-30T08:51:28.442Z,1011.51
2018-09-30T08:52:29.841Z,1011.41
2018-09-30T08:53:31.235Z,1011.44
2018-09-30T08:54:32.629Z,1011.39
2018-09-30T08:55:34.007Z,1011.38
2018-09-30T08:56:35.410Z,1011.37
2018-09-30T08:57:36.810Z,1011.36
2018-09-30T08:58:38.203Z,1011.34
2018-09-30T08:59:39.613Z,1011.32
2018-09-30T09:00:41.008Z,1011.34
2018-09-30T09:01:42.399Z,1011.38
2018-09-30T09:02:43.799Z,1011.37
2018-09-30T09:03:45.196Z,1011.38
2018-09-30T09:04:46.614Z,1011.37
2018-09-30T09:05:48.023Z,1011.34
2018-09-30T09:06:49.418Z,1011.34
2018-09-30T09:07:50.817Z,1011.36
2018-09-30T09:08:52.214Z,1011.33
2018-09-30T09:09:53.630Z,1011.33
2018-09-30T09:10:55.006Z,1011.35
2018-09-30T09:11:56.401Z,1011.30
2018-09-30T09:12:57.797Z,1011.31
2018-09-30T09:13:59.206Z,1011.32
2018-09-30T09:15:00.589Z,1011.30
2018-09-30T09:16:01.998Z,1011.32
2018-09-30T09:17:03.417Z,1011.29
2018-09-30T09:18:04.788Z,1011.28
2018-09-30T09:19:06.189Z,1011.28
2018-09-30T09:20:07.571Z,1011.29
2018-09-30T09:21:08.969Z,1011.28
2018-09-30T09:22:10.371Z,1011.29
2018-09-30T09:23:11.768Z,1011.31
2018-09-30T09:24:13.123Z,1011.25
2018-09-30T09:25:14.510Z,1011.24
2018-09-30T09:26:15.908Z,1011.22
2018-09-30T09:27:17.299Z,1011.24
2018-09-30T09:28:18.702Z,1011.19
2018-09-30T09:29:20.982Z,1011.13
2018-09-30T09:30:22.376Z,1011.14
2018-09-30T09:31:23.773Z,1011.12
2018-09-30T09:32:25.167Z,1011.13
2018-09-30T09:33:27.288Z,1011.13
2018-09-30T09:34:28.641Z,1011.12
2018-09-30T09:35:30.029Z,1011.09
2018-09-30T09:36:31.388Z,1011.10
2018-09-30T09:37:32.774Z,1011.10
2018-09-30T09:38:34.202Z,1011.12
2018-09-30T09:39:35.524Z,1011.07
2018-09-30T09:40:36.879Z,1011.11
2018-09-30T09:41:38.232Z,1011.05
2018-09-30T09:42:39.636Z,1010.99
2018-09-30T09:43:40.995Z,1010.99
2018-09-30T09:44:42.405Z,1010.90
2018-09-30T09:45:43.806Z,1010.92
2018-09-30T09:46:45.198Z,1010.90
2018-09-30T09:47:46.543Z,1010.86
2018-09-30T09:48:47.893Z,1010.90
2018-09-30T09:49:49.301Z,1010.87
2018-09-30T09:50:50.656Z,1010.88
2018-09-30T09:51:52.065Z,1010.83
2018-09-30T09:52:54.276Z,1010.81
2018-09-30T09:53:55.674Z,1010.80
2018-09-30T09:54:57.070Z,1010.76
2018-09-30T09:55:58.467Z,1010.76
2018-09-30T09:56:59.873Z,1010.76
2018-09-30T09:58:01.262Z,1010.75
2018-09-30T09:59:02.739Z,1010.73
2018-09-30T10:00:04.033Z,1010.76
2018-09-30T10:01:05.443Z,1010.71
2018-09-30T10:02:06.829Z,1010.74
2018-09-30T10:03:08.244Z,1010.67
2018-09-30T10:04:09.635Z,1010.63
2018-09-30T10:05:11.090Z,1010.68
2018-09-30T10:06:12.421Z,1010.56
2018-09-30T10:07:13.807Z,1010.58
2018-09-30T10:08:15.241Z,1010.56
2018-09-30T10:09:16.620Z,1010.57
2018-09-30T10:10:18.056Z,1010.57
2018-09-30T10:11:19.379Z,1010.58
2018-09-30T10:12:20.770Z,1010.58
2018-09-30T10:13:22.208Z,1010.63
2018-09-30T10:14:23.554Z,1010.60
2018-09-30T10:15:24.952Z,1010.55
2018-09-30T10:16:26.366Z,1010.53
2018-09-30T10:17:27.737Z,1010.51
2018-09-30T10:18:29.136Z,1010.48
2018-09-30T10:19:30.577Z,1010.49
2018-09-30T10:20:31.940Z,1010.46
2018-09-30T10:21:33.326Z,1010.47
2018-09-30T10:22:34.723Z,1010.42
2018-09-30T10:23:36.118Z,1010.46
2018-09-30T10:24:37.514Z,1010.39
2018-09-30T10:25:38.914Z,1010.40
2018-09-30T10:26:40.310Z,1010.31
2018-09-30T10:27:41.721Z,1010.36
2018-09-30T10:28:43.121Z,1010.31
2018-09-30T10:29:44.506Z,1010.33
2018-09-30T10:30:45.900Z,1010.36
2018-09-30T10:31:47.291Z,1010.26
2018-09-30T10:32:48.696Z,1010.27
2018-09-30T10:33:50.080Z,1010.23
2018-09-30T10:34:51.487Z,1010.27
2018-09-30T10:35:52.890Z,1010.27
2018-09-30T10:36:54.280Z,1010.27
2018-09-30T10:37:55.673Z,1010.32
2018-09-30T10:38:57.168Z,1010.28
2018-09-30T10:39:58.508Z,1010.34
2018-09-30T10:40:59.910Z,1010.25
2018-09-30T10:42:01.311Z,1010.25
2018-09-30T10:43:02.694Z,1010.22
2018-09-30T10:44:04.092Z,1010.21
2018-09-30T10:45:05.492Z,1010.16
2018-09-30T10:46:06.907Z,1010.07
2018-09-30T10:47:08.301Z,1010.12
2018-09-30T10:48:09.698Z,1010.09
2018-09-30T10:49:11.107Z,1010.07
2018-09-30T10:50:12.475Z,1010.00
2018-09-30T10:51:13.886Z,1010.01
2018-09-30T10:52:15.302Z,1009.99
2018-09-30T10:53:17.441Z,1010.04
2018-09-30T10:54:18.847Z,1010.05
2018-09-30T10:55:20.252Z,1009.98
2018-09-30T10:56:21.637Z,1009.96
2018-09-30T10:57:23.022Z,1009.96
2018-09-30T10:58:24.413Z,1009.97
2018-09-30T10:59:25.814Z,1009.97
2018-09-30T11:00:27.199Z,1009.87
2018-09-30T11:01:28.603Z,1009.92
2018-09-30T11:02:30.018Z,1009.87
2018-09-30T11:03:31.410Z,1009.87
2018-09-30T11:04:32.756Z,1009.93
2018-09-30T11:05:34.141Z,1009.89
2018-09-30T11:06:35.537Z,1009.86
2018-09-30T11:07:36.934Z,1009.82
2018-09-30T11:08:38.346Z,1009.86
2018-09-30T11:09:39.751Z,1009.85
2018-09-30T11:10:41.168Z,1009.82
2018-09-30T11:11:42.587Z,1009.75
2018-09-30T11:12:43.989Z,1009.74
2018-09-30T11:13:45.382Z,1009.73
2018-09-30T11:14:46.786Z,1009.73
2018-09-30T11:15:48.135Z,1009.69
2018-09-30T11:16:49.525Z,1009.66
2018-09-30T11:17:50.915Z,1009.75
2018-09-30T11:18:52.310Z,1009.72
2018-09-30T11:19:53.736Z,1009.72
2018-09-30T11:20:55.132Z,1009.66
2018-09-30T11:21:56.534Z,1009.66
2018-09-30T11:22:57.923Z,1009.70
2018-09-30T11:23:59.313Z,1009.64
2018-09-30T11:25:00.704Z,1009.63
2018-09-30T11:26:02.108Z,1009.54
2018-09-30T11:27:03.503Z,1009.65
2018-09-30T11:28:04.888Z,1009.62
2018-09-30T11:29:06.285Z,1009.58
2018-09-30T11:30:07.687Z,1009.54
2018-09-30T11:31:09.065Z,1009.53
2018-09-30T11:32:10.457Z,1009.53
2018-09-30T11:33:11.852Z,1009.52
2018-09-30T11:34:13.257Z,1009.48
2018-09-30T11:35:14.640Z,1009.50
2018-09-30T11:36:16.037Z,1009.45
2018-09-30T11:37:17.442Z,1009.43
2018-09-30T11:38:18.830Z,1009.47
2018-09-30T11:39:20.224Z,1009.34
2018-09-30T11:40:21.630Z,1009.35
2018-09-30T11:41:23.024Z,1009.37
2018-09-30T11:42:24.415Z,1009.39
2018-09-30T11:43:25.803Z,1009.29
2018-09-30T11:44:27.219Z,1009.31
2018-09-30T11:45:28.619Z,1009.26
2018-09-30T11:46:30.021Z,1009.26
2018-09-30T11:47:31.409Z,1009.24
2018-09-30T11:48:32.826Z,1009.22
2018-09-30T11:49:34.221Z,1009.20
2018-09-30T11:50:35.615Z,1009.19
2018-09-30T11:51:37.133Z,1009.21
2018-09-30T11:52:38.582Z,1009.26
2018-09-30T11:53:39.933Z,1009.24
2018-09-30T11:54:41.326Z,1009.18
2018-09-30T11:55:42.742Z,1009.21
2018-09-30T11:56:44.144Z,1009.23
2018-09-30T11:57:45.539Z,1009.22
2018-09-30T11:58:46.935Z,1009.19
2018-09-30T11:59:48.322Z,1009.21
2018-09-30T12:00:49.707Z,1009.16
2018-09-30T12:01:51.108Z,1009.12
2018-09-30T12:02:52.519Z,1009.13
2018-09-30T17:42:06.931Z,1006.57
2018-09-30T17:43:09.433Z,1006.59
2018-09-30T17:44:09.974Z,1006.57
2018-09-30T17:45:11.412Z,1006.52
2018-09-30T17:46:14.284Z,1006.55
2018-09-30T17:47:15.738Z,1006.59
2018-09-30T17:48:18.029Z,1006.56
2018-09-30T17:49:20.890Z,1006.56
2018-09-30T17:50:22.357Z,1006.60
2018-09-30T17:51:24.530Z,1006.56
2018-09-30T17:52:26.017Z,1006.57
2018-09-30T17:53:27.474Z,1006.58
2018-09-30T17:54:28.912Z,1006.57
2018-09-30T17:55:32.197Z,1006.58
2018-09-30T17:56:33.587Z,1006.67
2018-09-30T17:57:35.618Z,1006.63
2018-09-30T17:58:37.012Z,1006.62
2018-09-30T17:59:39.539Z,1006.67
2018-09-30T18:00:40.976Z,1006.66